Time;durP1;ratioP1;P1;durP2;ratioP2;P2;SDS_P1;SDS_P2;PMS_P1;PMS_P2;Temp;Humidity;BMP_temperature;BMP_pressure;BME280_temperature;BME280_humidity;BME280_pressure;Samples;Min_cycle;Max_cycle;Signal;HPM_P1;HPM_P2
2023/02/10 00:01:56;;;;;;;34.28;21.17;;;-3.20;99.90;;;;;;486576;244;27838;-75
2023/02/10 00:03:57;;;;;;;40.75;20.75;;;-3.20;99.90;;;;;;486555;244;27086;-75
2023/02/10 00:05:58;;;;;;;33.25;19.75;;;-3.20;99.90;;;;;;486560;244;27322;-75
2023/02/10 00:07:59;;;;;;;42.88;20.88;;;-3.20;99.90;;;;;;486541;244;27740;-75
2023/02/10 00:10:01;;;;;;;34.83;19.65;;;-3.20;99.90;;;;;;486576;244;27430;-76
2023/02/10 00:12:02;;;;;;;31.83;19.62;;;-3.20;99.90;;;;;;486610;244;27547;-76
2023/02/10 00:14:03;;;;;;;34.00;18.77;;;-3.20;99.90;;;;;;486591;244;27285;-75
2023/02/10 00:16:04;;;;;;;32.33;18.25;;;-3.10;99.90;;;;;;486555;244;27215;-75
2023/02/10 00:18:06;;;;;;;34.47;19.12;;;-3.20;99.90;;;;;;486584;244;27284;-75
2023/02/10 00:20:07;;;;;;;31.92;18.37;;;-3.20;99.90;;;;;;486587;244;27798;-75
2023/02/10 00:22:08;;;;;;;33.45;18.95;;;-3.20;99.90;;;;;;486549;244;27803;-75
2023/02/10 00:24:09;;;;;;;33.60;18.73;;;-3.20;99.90;;;;;;486524;244;27351;-74
2023/02/10 00:26:11;;;;;;;35.47;20.75;;;-3.30;99.90;;;;;;486531;244;27346;-75
2023/02/10 00:28:12;;;;;;;38.22;20.35;;;-3.30;99.90;;;;;;486511;244;27552;-75
2023/02/10 00:30:13;;;;;;;34.30;20.37;;;-3.30;99.90;;;;;;486507;244;27200;-75
2023/02/10 00:32:17;;;;;;;36.00;18.75;;;-3.30;99.90;;;;;;486564;244;27875;-77
2023/02/10 00:34:16;;;;;;;37.13;21.02;;;-3.30;99.90;;;;;;486541;244;27616;-75
2023/02/10 00:36:17;;;;;;;36.22;19.42;;;-3.30;99.90;;;;;;486535;244;27219;-75
2023/02/10 00:38:18;;;;;;;37.38;21.40;;;-3.30;99.90;;;;;;486562;244;26965;-75
2023/02/10 00:40:20;;;;;;;36.92;20.65;;;-3.40;99.90;;;;;;486561;244;27246;-75
2023/02/10 00:42:21;;;;;;;39.83;21.92;;;-3.40;99.90;;;;;;486579;244;27096;-76
2023/02/10 00:44:22;;;;;;;32.53;19.83;;;-3.40;99.90;;;;;;486521;244;27376;-75
2023/02/10 00:46:23;;;;;;;33.88;18.95;;;-3.40;99.90;;;;;;486533;244;28803;-76
2023/02/10 00:48:25;;;;;;;26.00;16.48;;;-3.40;99.90;;;;;;486548;244;27113;-75
2023/02/10 00:50:26;;;;;;;36.25;21.02;;;-3.40;99.90;;;;;;486389;244;27130;-75
2023/02/10 00:52:27;;;;;;;39.63;20.12;;;-3.40;99.90;;;;;;486560;244;27137;-75
2023/02/10 00:54:28;;;;;;;36.33;20.23;;;-3.30;99.90;;;;;;486495;244;27273;-75
2023/02/10 00:56:30;;;;;;;37.78;19.92;;;-3.40;99.90;;;;;;486518;244;27439;-75
2023/02/10 00:58:31;;;;;;;33.80;19.20;;;-3.40;99.90;;;;;;486505;244;28410;-75
2023/02/10 01:00:32;;;;;;;36.42;20.60;;;-3.40;99.90;;;;;;486540;244;27259;-75
2023/02/10 01:02:33;;;;;;;35.35;20.33;;;-3.40;99.90;;;;;;486526;244;27413;-76
2023/02/10 01:04:35;;;;;;;35.10;20.83;;;-3.50;99.90;;;;;;486511;244;27308;-75
2023/02/10 01:06:36;;;;;;;35.03;21.02;;;-3.50;99.90;;;;;;486529;244;27337;-76
2023/02/10 01:08:37;;;;;;;40.20;20.58;;;-3.50;99.90;;;;;;486543;244;27275;-75
2023/02/10 01:10:38;;;;;;;36.53;20.10;;;-3.50;99.90;;;;;;486547;244;27514;-75
2023/02/10 01:12:40;;;;;;;37.17;21.42;;;-3.50;99.90;;;;;;486533;244;27844;-75
2023/02/10 01:14:41;;;;;;;36.38;19.30;;;-3.50;99.90;;;;;;486524;244;27249;-75
2023/02/10 01:16:42;;;;;;;44.60;21.95;;;-3.50;99.90;;;;;;486516;244;27106;-75
2023/02/10 01:18:43;;;;;;;41.45;20.48;;;-3.40;99.90;;;;;;486535;244;27189;-75
2023/02/10 01:20:45;;;;;;;34.33;18.90;;;-3.50;99.90;;;;;;486554;244;27211;-75
2023/02/10 01:22:46;;;;;;;31.85;17.10;;;-3.40;99.90;;;;;;486566;244;27672;-76
2023/02/10 01:24:47;;;;;;;34.78;20.90;;;-3.50;99.90;;;;;;486515;243;27854;-75
2023/02/10 01:26:49;;;;;;;33.95;18.65;;;-3.50;99.90;;;;;;486526;244;27247;-75
2023/02/10 01:28:50;;;;;;;38.67;18.55;;;-3.50;99.90;;;;;;486540;244;27269;-75
2023/02/10 01:30:51;;;;;;;34.28;20.58;;;-3.50;99.90;;;;;;486568;244;27382;-75
2023/02/10 01:32:52;;;;;;;36.63;21.27;;;-3.50;99.90;;;;;;486557;244;27232;-75
2023/02/10 01:34:54;;;;;;;29.60;18.50;;;-3.50;99.90;;;;;;486538;244;27154;-76
2023/02/10 01:36:55;;;;;;;34.45;20.40;;;-3.50;99.90;;;;;;486542;244;27868;-75
2023/02/10 01:38:56;;;;;;;35.58;21.25;;;-3.50;99.90;;;;;;486580;244;27384;-75
2023/02/10 01:40:57;;;;;;;36.00;20.40;;;-3.50;99.90;;;;;;486580;244;27311;-75
2023/02/10 01:42:59;;;;;;;34.15;20.30;;;-3.50;99.90;;;;;;486562;244;27319;-75
2023/02/10 01:45:00;;;;;;;36.00;20.40;;;-3.50;99.90;;;;;;486539;244;27073;-75
2023/02/10 01:47:01;;;;;;;34.03;19.42;;;-3.60;99.90;;;;;;486560;244;27198;-75
2023/02/10 01:49:02;;;;;;;36.83;19.77;;;-3.60;99.90;;;;;;486552;244;27610;-76
2023/02/10 01:51:04;;;;;;;39.47;20.92;;;-3.60;99.90;;;;;;486593;244;27834;-76
2023/02/10 01:53:05;;;;;;;40.47;21.08;;;-3.70;99.90;;;;;;486553;244;27300;-75
2023/02/10 01:55:06;;;;;;;34.10;18.40;;;-3.70;99.90;;;;;;486534;244;27155;-75
2023/02/10 01:57:07;;;;;;;33.08;19.77;;;-3.80;99.90;;;;;;486487;244;27328;-75
2023/02/10 01:59:09;;;;;;;36.15;19.65;;;-3.70;99.90;;;;;;486558;244;27242;-76
2023/02/10 02:01:10;;;;;;;34.00;20.48;;;-3.80;99.90;;;;;;486535;244;27419;-75
2023/02/10 02:03:11;;;;;;;35.58;18.75;;;-3.80;99.90;;;;;;486524;244;27671;-75
2023/02/10 02:05:12;;;;;;;39.40;21.77;;;-3.70;99.90;;;;;;486498;244;27093;-76
2023/02/10 02:07:14;;;;;;;36.55;20.92;;;-3.70;99.90;;;;;;486534;244;26978;-75
2023/02/10 02:09:15;;;;;;;32.92;18.62;;;-3.70;99.90;;;;;;486570;244;27094;-77
2023/02/10 02:11:16;;;;;;;37.83;19.92;;;-3.70;99.90;;;;;;486540;244;27155;-75
2023/02/10 02:13:17;;;;;;;37.67;19.77;;;-3.70;99.90;;;;;;486497;244;27732;-76
2023/02/10 02:15:19;;;;;;;38.45;20.48;;;-3.80;99.90;;;;;;486499;244;28597;-75
2023/02/10 02:17:20;;;;;;;36.55;20.73;;;-3.80;99.90;;;;;;486541;244;27374;-75
2023/02/10 02:19:21;;;;;;;32.50;18.37;;;-4.00;99.90;;;;;;486536;244;27332;-76
2023/02/10 02:21:23;;;;;;;38.17;21.45;;;-4.00;99.90;;;;;;486517;244;27346;-75
2023/02/10 02:23:24;;;;;;;37.10;21.05;;;-4.00;99.90;;;;;;486541;244;27348;-75
2023/02/10 02:25:25;;;;;;;31.25;19.60;;;-3.90;99.90;;;;;;486541;244;27164;-75
2023/02/10 02:27:26;;;;;;;36.20;19.58;;;-3.90;99.90;;;;;;486542;244;27507;-75
2023/02/10 02:29:28;;;;;;;42.88;24.75;;;-3.90;99.90;;;;;;486562;244;27408;-75
2023/02/10 02:31:29;;;;;;;31.05;19.23;;;-4.00;99.90;;;;;;486518;244;27047;-75
2023/02/10 02:33:30;;;;;;;43.20;21.33;;;-3.90;99.90;;;;;;486512;244;27195;-75
2023/02/10 02:35:31;;;;;;;32.22;18.95;;;-3.90;99.90;;;;;;486525;244;27079;-75
2023/02/10 02:37:33;;;;;;;36.13;20.35;;;-3.90;99.90;;;;;;486555;244;27120;-75
2023/02/10 02:39:34;;;;;;;37.78;22.30;;;-3.80;99.90;;;;;;486529;244;27754;-76
2023/02/10 02:41:35;;;;;;;33.47;19.50;;;-3.80;99.90;;;;;;486527;244;27529;-75
2023/02/10 02:43:36;;;;;;;39.38;20.88;;;-3.70;99.90;;;;;;486482;244;27233;-75
2023/02/10 02:45:38;;;;;;;38.95;21.23;;;-3.70;99.90;;;;;;486513;244;27219;-75
2023/02/10 02:47:39;;;;;;;35.40;19.90;;;-3.70;99.90;;;;;;486559;244;27195;-75
2023/02/10 02:49:40;;;;;;;32.78;19.30;;;-3.60;99.90;;;;;;486544;244;27105;-75
2023/02/10 02:51:41;;;;;;;37.22;20.25;;;-3.60;99.90;;;;;;486516;244;27586;-75
2023/02/10 02:53:43;;;;;;;30.10;16.95;;;-3.60;99.90;;;;;;486489;244;27717;-76
2023/02/10 02:55:44;;;;;;;34.25;20.77;;;-3.70;99.90;;;;;;486544;244;27216;-75
2023/02/10 02:57:45;;;;;;;38.50;20.37;;;-3.70;99.90;;;;;;486546;244;27176;-75
2023/02/10 02:59:46;;;;;;;35.63;19.98;;;-3.70;99.90;;;;;;486550;244;27304;-75
2023/02/10 03:01:49;;;;;;;43.25;23.77;;;-3.70;99.90;;;;;;486516;244;27225;-75
2023/02/10 03:03:49;;;;;;;37.08;19.50;;;-3.70;99.90;;;;;;486509;244;27438;-75
2023/02/10 03:05:50;;;;;;;38.40;21.17;;;-3.70;99.90;;;;;;486531;244;27853;-75
2023/02/10 03:07:52;;;;;;;37.38;20.55;;;-3.70;99.90;;;;;;486534;244;27240;-75
2023/02/10 03:09:53;;;;;;;37.47;19.15;;;-3.70;99.90;;;;;;486523;244;27399;-75
2023/02/10 03:11:54;;;;;;;39.13;21.98;;;-3.70;99.90;;;;;;486508;244;27284;-75
2023/02/10 03:13:55;;;;;;;38.53;22.37;;;-3.70;99.90;;;;;;486507;244;26995;-75
2023/02/10 03:15:57;;;;;;;39.38;20.83;;;-3.80;99.90;;;;;;486550;244;27118;-76
2023/02/10 03:17:58;;;;;;;37.67;21.50;;;-3.80;99.90;;;;;;486547;244;27754;-75
2023/02/10 03:19:59;;;;;;;39.85;22.37;;;-3.80;99.90;;;;;;486552;244;27680;-75
2023/02/10 03:22:00;;;;;;;37.95;20.70;;;-3.80;99.90;;;;;;486534;244;27201;-75
2023/02/10 03:24:02;;;;;;;39.85;22.48;;;-3.90;99.90;;;;;;486554;244;27230;-75
2023/02/10 03:26:03;;;;;;;41.97;23.10;;;-3.90;99.90;;;;;;486546;244;27090;-76
2023/02/10 03:28:05;;;;;;;39.00;22.30;;;-3.90;99.90;;;;;;486575;244;27170;-75
2023/02/10 03:30:05;;;;;;;34.90;21.25;;;-3.90;99.90;;;;;;486536;244;27665;-75
2023/02/10 03:32:07;;;;;;;32.90;19.95;;;-3.90;99.90;;;;;;486567;244;27734;-75
2023/02/10 03:34:08;;;;;;;36.15;20.70;;;-3.90;99.90;;;;;;486561;244;27300;-75
2023/02/10 03:36:09;;;;;;;34.97;20.85;;;-3.90;99.90;;;;;;486573;244;27411;-75
2023/02/10 03:38:10;;;;;;;38.80;21.83;;;-3.90;99.90;;;;;;486550;244;27170;-75
2023/02/10 03:40:12;;;;;;;33.30;19.65;;;-4.00;99.90;;;;;;486489;244;27014;-75
2023/02/10 03:42:13;;;;;;;40.75;20.90;;;-4.00;99.90;;;;;;486516;244;27688;-75
2023/02/10 03:44:14;;;;;;;38.15;21.30;;;-4.10;99.90;;;;;;486522;244;28654;-75
2023/02/10 03:46:15;;;;;;;37.67;22.05;;;-4.10;99.90;;;;;;486551;244;27110;-75
2023/02/10 03:48:17;;;;;;;39.50;22.60;;;-4.20;99.90;;;;;;486500;244;27082;-75
2023/02/10 03:50:18;;;;;;;36.33;20.88;;;-4.20;99.90;;;;;;486490;244;27142;-76
2023/02/10 03:52:19;;;;;;;40.10;20.50;;;-4.20;99.90;;;;;;486470;244;27030;-75
2023/02/10 03:54:20;;;;;;;42.25;23.30;;;-4.20;99.90;;;;;;486511;244;27042;-75
2023/02/10 03:56:22;;;;;;;38.25;22.55;;;-4.20;99.90;;;;;;486509;244;27744;-76
2023/02/10 03:58:23;;;;;;;43.22;23.62;;;-4.20;99.90;;;;;;486518;244;27098;-75
2023/02/10 04:00:24;;;;;;;39.22;23.38;;;-4.20;99.90;;;;;;486508;244;27082;-75
2023/02/10 04:02:26;;;;;;;35.80;21.27;;;-4.20;99.90;;;;;;486502;244;27177;-74
2023/02/10 04:04:27;;;;;;;42.15;22.33;;;-4.20;99.90;;;;;;486544;244;27437;-75
2023/02/10 04:06:28;;;;;;;38.25;21.77;;;-4.30;99.90;;;;;;486531;243;27206;-75
2023/02/10 04:08:29;;;;;;;38.95;21.52;;;-4.30;99.90;;;;;;486500;244;27515;-75
2023/02/10 04:10:32;;;;;;;41.33;21.67;;;;;;;;;;486491;244;27474;-76
2023/02/10 04:12:34;;;;;;;42.72;23.33;;;;;;;;;;486579;244;26653;-75
2023/02/10 04:14:35;;;;;;;38.30;21.02;;;-4.40;99.90;;;;;;486550;244;26499;-75
2023/02/10 04:16:38;;;;;;;41.97;24.00;;;;;;;;;;486521;244;26994;-75
2023/02/10 04:18:39;;;;;;;41.58;21.27;;;-4.40;99.90;;;;;;486437;244;26820;-75
2023/02/10 04:20:42;;;;;;;41.83;21.30;;;;;;;;;;486559;244;27184;-75
2023/02/10 04:22:43;;;;;;;37.92;21.62;;;-4.40;99.90;;;;;;486531;244;27073;-75
2023/02/10 04:24:45;;;;;;;39.85;22.35;;;;;;;;;;486514;244;27549;-75
2023/02/10 04:26:46;;;;;;;37.10;21.30;;;-4.50;99.90;;;;;;486546;244;26662;-76
2023/02/10 04:28:48;;;;;;;37.47;21.17;;;-4.40;99.90;;;;;;486529;244;27003;-75
2023/02/10 04:30:49;;;;;;;39.40;23.12;;;-4.50;99.90;;;;;;486528;244;27541;-75
2023/02/10 04:32:51;;;;;;;32.10;19.77;;;-4.40;99.90;;;;;;486562;244;27272;-75
2023/02/10 04:34:52;;;;;;;38.13;21.83;;;-4.40;99.90;;;;;;486557;244;27009;-75
2023/02/10 04:36:54;;;;;;;38.75;21.60;;;;;;;;;;486534;244;27172;-75
2023/02/10 04:38:57;;;;;;;43.47;23.62;;;;;;;;;;486527;243;26630;-75
2023/02/10 04:40:58;;;;;;;35.53;20.30;;;-4.50;99.90;;;;;;486506;244;26802;-75
2023/02/10 04:42:59;;;;;;;42.65;21.48;;;-4.50;99.90;;;;;;486531;244;27502;-75
2023/02/10 04:45:02;;;;;;;48.25;26.12;;;;;;;;;;486551;244;27700;-75
2023/02/10 04:47:04;;;;;;;38.50;22.02;;;;;;;;;;486574;244;26912;-75
2023/02/10 04:49:06;;;;;;;42.10;23.70;;;-4.60;99.90;;;;;;486565;244;26790;-75
2023/02/10 04:51:08;;;;;;;31.37;18.98;;;;;;;;;;486525;244;27126;-75
2023/02/10 04:53:10;;;;;;;36.33;21.02;;;;;;;;;;486546;244;26769;-75
2023/02/10 04:55:11;;;;;;;41.70;22.30;;;-4.60;99.90;;;;;;486533;243;26869;-76
2023/02/10 04:57:13;;;;;;;43.90;23.00;;;-4.50;99.90;;;;;;486519;244;27408;-75
2023/02/10 04:59:15;;;;;;;44.58;23.52;;;;;;;;;;486535;244;27484;-75
2023/02/10 05:01:16;;;;;;;47.50;23.35;;;-4.50;99.90;;;;;;486564;244;26522;-75
2023/02/10 05:03:18;;;;;;;40.08;21.05;;;-4.50;99.90;;;;;;486529;244;27045;-75
2023/02/10 05:05:19;;;;;;;44.25;22.85;;;-4.50;99.90;;;;;;486489;244;28614;-75
2023/02/10 05:07:21;;;;;;;43.55;23.15;;;;;;;;;;486505;244;27012;-75
2023/02/10 05:09:23;;;;;;;41.78;23.73;;;-4.50;99.90;;;;;;486539;244;26785;-75
2023/02/10 05:11:24;;;;;;;38.63;22.20;;;-4.50;99.90;;;;;;486531;244;27678;-75
2023/02/10 05:13:26;;;;;;;41.33;23.25;;;;;;;;;;486525;244;27634;-75
2023/02/10 05:15:29;;;;;;;38.90;20.92;;;;;;;;;;486561;244;26554;-75
2023/02/10 05:17:31;;;;;;;44.25;22.95;;;;;;;;;;486550;244;26545;-75
2023/02/10 05:19:34;;;;;;;40.53;23.05;;;;;;;;;;486510;244;27260;-76
2023/02/10 05:21:36;;;;;;;37.13;22.20;;;;;;;;;;486550;244;26621;-75
2023/02/10 05:23:39;;;;;;;40.38;21.92;;;;;;;;;;486528;244;26381;-75
2023/02/10 05:25:41;;;;;;;37.75;20.33;;;;;;;;;;486563;244;26550;-75
2023/02/10 05:27:43;;;;;;;41.95;23.05;;;;;;;;;;486563;244;26413;-74
2023/02/10 05:29:46;;;;;;;35.17;19.58;;;;;;;;;;486571;244;27391;-74
2023/02/10 05:31:48;;;;;;;40.03;23.08;;;;;;;;;;486593;244;26602;-75
2023/02/10 05:33:49;;;;;;;42.72;23.05;;;-4.70;99.90;;;;;;486593;244;26706;-75
2023/02/10 05:35:51;;;;;;;38.90;22.85;;;-4.60;99.90;;;;;;486546;244;27124;-75
2023/02/10 05:37:52;;;;;;;48.85;25.58;;;-4.70;99.90;;;;;;486601;244;27094;-74
2023/02/10 05:39:55;;;;;;;40.17;22.95;;;;;;;;;;486596;244;26971;-75
2023/02/10 05:41:57;;;;;;;43.80;24.23;;;;;;;;;;486574;244;26615;-74
2023/02/10 05:43:59;;;;;;;43.25;24.85;;;;;;;;;;486572;244;27076;-76
2023/02/10 05:46:01;;;;;;;40.80;23.23;;;-4.80;99.90;;;;;;486580;244;26543;-75
2023/02/10 05:48:02;;;;;;;39.45;23.10;;;-4.70;99.90;;;;;;486554;244;26958;-75
2023/02/10 05:50:03;;;;;;;40.50;23.58;;;-4.80;99.90;;;;;;486509;244;27462;-75
2023/02/10 05:52:04;;;;;;;41.40;22.87;;;-4.80;99.90;;;;;;486563;244;27673;-75
2023/02/10 05:54:07;;;;;;;42.45;23.55;;;;;;;;;;486571;244;27139;-75
2023/02/10 05:56:09;;;;;;;39.50;22.58;;;;;;;;;;486494;244;26549;-75
2023/02/10 05:58:10;;;;;;;46.70;25.10;;;-4.80;99.90;;;;;;486542;244;26536;-75
2023/02/10 06:00:13;;;;;;;40.90;23.12;;;;;;;;;;486571;244;27055;-75
2023/02/10 06:02:15;;;;;;;38.30;22.40;;;;;;;;;;486526;244;27045;-74
2023/02/10 06:04:17;;;;;;;36.05;21.12;;;-4.80;99.90;;;;;;486539;244;26731;-75
2023/02/10 06:06:18;;;;;;;44.70;23.98;;;-4.80;99.90;;;;;;486528;243;27866;-75
2023/02/10 06:08:19;;;;;;;46.85;25.65;;;-4.70;99.90;;;;;;486562;244;27676;-75
2023/02/10 06:10:22;;;;;;;43.92;24.12;;;;;;;;;;486538;244;26955;-75
2023/02/10 06:12:23;;;;;;;39.38;22.25;;;-4.80;99.90;;;;;;486536;244;26523;-75
2023/02/10 06:14:24;;;;;;;44.38;23.87;;;-4.70;99.90;;;;;;486548;244;27513;-75
2023/02/10 06:16:25;;;;;;;42.30;24.10;;;-4.70;99.90;;;;;;486546;244;27062;-75
2023/02/10 06:18:28;;;;;;;42.83;23.85;;;;;;;;;;486544;244;26955;-75
2023/02/10 06:20:29;;;;;;;44.47;23.62;;;-4.60;99.90;;;;;;486524;244;27757;-75
2023/02/10 06:22:32;;;;;;;42.08;23.27;;;;;;;;;;486566;244;27553;-75
2023/02/10 06:24:34;;;;;;;48.30;24.15;;;;;;;;;;486536;244;26519;-75
2023/02/10 06:26:35;;;;;;;41.22;23.62;;;-4.40;99.90;;;;;;486534;244;26550;-74
2023/02/10 06:28:36;;;;;;;46.88;24.70;;;-4.30;99.90;;;;;;486566;244;27070;-75
2023/02/10 06:30:38;;;;;;;42.80;24.40;;;-4.40;99.90;;;;;;486540;244;27478;-75
2023/02/10 06:32:39;;;;;;;41.88;24.10;;;-4.40;99.90;;;;;;486534;244;27057;-75
2023/02/10 06:34:41;;;;;;;42.17;23.60;;;-4.30;99.90;;;;;;486503;244;27728;-75
2023/02/10 06:36:41;;;;;;;44.10;24.27;;;-4.30;99.90;;;;;;486533;244;27708;-76
2023/02/10 06:38:43;;;;;;;38.80;22.70;;;-4.20;99.90;;;;;;486556;244;27053;-75
2023/02/10 06:40:45;;;;;;;45.25;23.83;;;;;;;;;;486522;244;27185;-75
2023/02/10 06:42:46;;;;;;;41.65;23.75;;;-4.20;99.90;;;;;;486492;244;27445;-75
2023/02/10 06:44:48;;;;;;;43.15;24.67;;;-4.10;99.90;;;;;;486542;244;27319;-76
2023/02/10 06:46:49;;;;;;;45.67;24.37;;;-4.00;99.90;;;;;;486503;244;26971;-75
2023/02/10 06:48:50;;;;;;;40.42;24.73;;;-4.00;99.90;;;;;;486531;244;27102;-75
2023/02/10 06:50:52;;;;;;;41.72;23.05;;;-3.90;99.90;;;;;;486513;244;27161;-75
2023/02/10 06:52:53;;;;;;;41.70;23.58;;;-3.90;99.90;;;;;;486529;244;27669;-75
2023/02/10 06:54:54;;;;;;;37.35;23.20;;;-3.80;99.90;;;;;;486579;244;27859;-76
2023/02/10 06:56:55;;;;;;;39.30;23.25;;;-3.90;99.90;;;;;;486529;244;27165;-75
2023/02/10 06:58:56;;;;;;;44.72;25.50;;;-3.90;99.90;;;;;;486538;244;27202;-75
2023/02/10 07:01:00;;;;;;;41.65;23.27;;;-3.90;99.90;;;;;;486516;244;27256;-75
2023/02/10 07:02:59;;;;;;;47.22;23.87;;;-3.80;99.90;;;;;;486488;244;27364;-75
2023/02/10 07:05:02;;;;;;;40.90;22.58;;;-3.80;99.90;;;;;;486536;244;27672;-77
2023/02/10 07:07:02;;;;;;;37.78;23.38;;;-3.80;99.90;;;;;;486500;244;28881;-75
2023/02/10 07:09:03;;;;;;;43.90;24.23;;;-3.70;99.90;;;;;;486538;244;27186;-75
2023/02/10 07:11:04;;;;;;;53.72;28.02;;;-3.60;99.90;;;;;;486526;244;27419;-76
2023/02/10 07:13:05;;;;;;;47.97;27.90;;;-3.70;99.90;;;;;;486508;244;27462;-75
2023/02/10 07:15:07;;;;;;;43.53;25.70;;;-3.70;99.90;;;;;;486562;244;27444;-76
2023/02/10 07:17:08;;;;;;;43.63;26.40;;;-3.60;99.90;;;;;;486539;244;27292;-75
2023/02/10 07:19:09;;;;;;;39.70;24.12;;;-3.50;99.90;;;;;;486576;244;27894;-76
2023/02/10 07:21:10;;;;;;;50.17;27.50;;;-3.40;99.90;;;;;;486545;244;27349;-75
2023/02/10 07:23:12;;;;;;;49.38;26.08;;;-3.20;99.90;;;;;;486556;244;27441;-76
2023/02/10 07:25:13;;;;;;;44.67;25.30;;;-3.20;99.90;;;;;;486522;244;27550;-75
2023/02/10 07:27:14;;;;;;;40.53;24.17;;;-3.00;99.90;;;;;;486559;244;27487;-75
2023/02/10 07:29:15;;;;;;;41.08;25.50;;;-2.90;99.90;;;;;;486552;244;27463;-75
2023/02/10 07:31:17;;;;;;;44.95;26.50;;;-2.80;99.90;;;;;;486557;244;27877;-75
2023/02/10 07:33:18;;;;;;;46.22;26.73;;;-2.80;99.90;;;;;;486515;244;28996;-75
2023/02/10 07:35:19;;;;;;;39.50;23.58;;;-2.70;99.90;;;;;;486536;244;27450;-77
2023/02/10 07:37:21;;;;;;;42.75;24.80;;;-2.60;99.90;;;;;;486560;244;27399;-76
2023/02/10 07:39:22;;;;;;;47.22;25.40;;;-2.60;99.90;;;;;;486570;244;27473;-76
2023/02/10 07:41:23;;;;;;;44.58;24.15;;;-2.60;99.90;;;;;;486568;244;27406;-76
2023/02/10 07:43:24;;;;;;;43.28;26.05;;;-2.60;99.90;;;;;;486564;244;27907;-75
2023/02/10 07:45:30;;;;;;;38.58;25.33;;;-2.70;99.90;;;;;;486606;244;27925;-77
2023/02/10 07:47:30;;;;;;;43.72;25.33;;;-2.70;99.90;;;;;;486557;244;27484;-75
2023/02/10 07:49:31;;;;;;;46.63;25.92;;;-2.70;99.90;;;;;;486561;244;27998;-76
2023/02/10 07:51:32;;;;;;;44.03;25.75;;;-2.70;99.90;;;;;;486574;244;27506;-75
2023/02/10 07:53:33;;;;;;;43.78;24.70;;;-2.70;99.90;;;;;;486543;244;27526;-76
2023/02/10 07:55:35;;;;;;;46.75;24.83;;;-2.80;99.90;;;;;;486539;244;27407;-76
2023/02/10 07:57:38;;;;;;;56.25;30.75;;;-2.70;99.90;;;;;;486549;243;27478;-75
2023/02/10 07:59:37;;;;;;;41.50;25.73;;;-2.80;99.90;;;;;;486504;244;27414;-75
2023/02/10 08:01:41;;;;;;;53.50;28.85;;;-2.70;99.90;;;;;;486521;244;27944;-75
2023/02/10 08:03:40;;;;;;;46.37;25.52;;;-2.70;99.90;;;;;;486486;244;28775;-76
2023/02/10 08:05:47;;;;;;;39.38;24.02;;;-2.60;99.90;;;;;;486547;244;27461;-76
2023/02/10 08:07:42;;;;;;;51.05;26.95;;;-2.70;99.90;;;;;;486324;244;27461;-76
2023/02/10 08:09:44;;;;;;;47.55;26.58;;;-2.70;99.90;;;;;;486525;244;27502;-76
2023/02/10 08:11:45;;;;;;;45.65;25.37;;;-2.70;99.90;;;;;;486490;244;27514;-76
2023/02/10 08:13:46;;;;;;;46.85;27.60;;;-2.60;99.90;;;;;;486542;244;28120;-75
2023/02/10 08:15:47;;;;;;;46.10;26.55;;;-2.60;99.90;;;;;;486542;244;29052;-75
2023/02/10 08:17:49;;;;;;;48.15;26.75;;;-2.50;99.90;;;;;;486537;244;27526;-76
2023/02/10 08:19:50;;;;;;;49.72;28.27;;;-2.40;99.90;;;;;;486522;244;27419;-75
2023/02/10 08:21:51;;;;;;;43.60;26.08;;;-2.40;99.90;;;;;;486532;244;27517;-76
2023/02/10 08:23:54;;;;;;;43.65;25.50;;;-2.30;99.90;;;;;;486556;244;27473;-77
2023/02/10 08:25:54;;;;;;;40.97;24.63;;;-2.30;99.90;;;;;;486543;244;27399;-76
2023/02/10 08:27:55;;;;;;;41.22;25.25;;;-2.30;99.90;;;;;;486531;244;27969;-76
2023/02/10 08:29:56;;;;;;;40.05;24.77;;;-2.20;99.90;;;;;;486531;244;27449;-76
2023/02/10 08:31:57;;;;;;;44.25;27.35;;;-2.10;99.90;;;;;;486525;244;27474;-76
2023/02/10 08:33:59;;;;;;;39.40;24.60;;;-2.10;99.90;;;;;;486550;244;27436;-76
2023/02/10 08:36:00;;;;;;;42.60;24.37;;;-2.10;99.90;;;;;;486551;244;27497;-76
2023/02/10 08:38:01;;;;;;;43.05;26.17;;;-2.10;99.90;;;;;;486575;244;27505;-75
2023/02/10 08:40:05;;;;;;;47.15;27.48;;;-2.00;99.90;;;;;;486518;244;27862;-76
2023/02/10 08:42:04;;;;;;;38.47;22.75;;;-1.90;99.90;;;;;;486474;244;28998;-75
2023/02/10 08:44:05;;;;;;;42.78;24.48;;;-1.90;99.90;;;;;;486561;244;27458;-76
2023/02/10 08:46:06;;;;;;;42.35;24.70;;;-1.80;99.90;;;;;;486539;244;27521;-76
2023/02/10 08:48:07;;;;;;;43.30;24.92;;;-1.80;99.90;;;;;;486525;244;27472;-77
2023/02/10 08:50:09;;;;;;;49.25;25.62;;;-1.70;99.90;;;;;;486530;244;27423;-76
2023/02/10 08:52:10;;;;;;;38.03;22.35;;;-1.60;99.90;;;;;;486522;244;27946;-76
2023/02/10 08:54:11;;;;;;;39.78;23.20;;;-1.50;99.90;;;;;;486544;244;27997;-77
2023/02/10 08:56:12;;;;;;;48.03;26.75;;;-1.50;99.90;;;;;;486543;244;27393;-76
2023/02/10 08:58:14;;;;;;;44.75;25.08;;;-1.40;99.90;;;;;;486544;244;27570;-76
2023/02/10 09:00:15;;;;;;;45.55;25.95;;;-1.40;99.90;;;;;;486538;244;27454;-76
2023/02/10 09:02:16;;;;;;;40.22;22.50;;;-1.40;99.90;;;;;;486558;244;27450;-76
2023/02/10 09:04:18;;;;;;;47.62;26.73;;;-1.30;99.90;;;;;;486528;244;27890;-76
2023/02/10 09:06:19;;;;;;;50.58;28.20;;;-1.10;99.90;;;;;;486556;244;27841;-76
2023/02/10 09:08:21;;;;;;;40.83;24.55;;;-1.00;99.90;;;;;;486533;244;27553;-76
2023/02/10 09:10:21;;;;;;;40.58;24.55;;;-1.00;99.90;;;;;;486498;244;27407;-76
2023/02/10 09:12:23;;;;;;;40.90;23.17;;;-0.90;99.90;;;;;;486563;244;27486;-76
2023/02/10 09:14:24;;;;;;;41.05;24.63;;;-0.80;99.90;;;;;;486572;244;27526;-76
2023/02/10 09:16:25;;;;;;;42.13;26.33;;;-0.60;99.90;;;;;;486553;244;27497;-76
2023/02/10 09:18:26;;;;;;;48.85;26.80;;;-0.40;99.90;;;;;;486520;244;28017;-76
2023/02/10 09:20:28;;;;;;;44.90;26.70;;;-0.10;99.90;;;;;;486555;244;27990;-76
2023/02/10 09:22:29;;;;;;;43.28;25.90;;;0.10;99.90;;;;;;486564;244;27539;-76
2023/02/10 09:24:30;;;;;;;39.97;24.45;;;0.20;99.90;;;;;;486547;244;27549;-77
2023/02/10 09:26:31;;;;;;;39.72;24.83;;;0.30;99.90;;;;;;486516;244;27552;-76
2023/02/10 09:28:33;;;;;;;41.97;26.70;;;0.40;99.90;;;;;;486536;244;27476;-76
2023/02/10 09:30:34;;;;;;;45.12;26.05;;;0.50;99.90;;;;;;486574;244;27438;-77
2023/02/10 09:32:35;;;;;;;42.83;26.98;;;0.60;99.90;;;;;;486550;244;27953;-76
2023/02/10 09:34:36;;;;;;;45.20;27.75;;;0.70;99.90;;;;;;486534;244;28149;-76
2023/02/10 09:36:38;;;;;;;45.80;25.55;;;0.80;99.90;;;;;;486520;244;27386;-76
2023/02/10 09:38:39;;;;;;;42.22;26.42;;;0.90;99.90;;;;;;486475;244;27548;-77
2023/02/10 09:40:40;;;;;;;44.92;26.90;;;0.90;99.90;;;;;;486544;244;27610;-77
2023/02/10 09:42:41;;;;;;;41.08;25.98;;;1.10;99.90;;;;;;486556;244;27430;-77
2023/02/10 09:44:43;;;;;;;43.45;26.80;;;1.10;99.90;;;;;;486537;244;27450;-77
2023/02/10 09:46:44;;;;;;;43.72;24.37;;;1.20;99.90;;;;;;486462;244;27407;-77
2023/02/10 09:48:46;;;;;;;40.58;25.37;;;1.30;99.90;;;;;;486482;244;27945;-75
2023/02/10 09:50:46;;;;;;;40.08;24.75;;;1.30;99.90;;;;;;486520;244;27937;-76
2023/02/10 09:52:48;;;;;;;40.90;24.80;;;1.40;99.90;;;;;;486530;244;27518;-77
2023/02/10 09:54:49;;;;;;;44.90;25.58;;;1.40;99.90;;;;;;486496;244;27510;-77
2023/02/10 09:56:50;;;;;;;40.30;25.12;;;1.40;99.90;;;;;;486517;244;27395;-75
2023/02/10 09:58:51;;;;;;;45.72;26.17;;;1.50;99.90;;;;;;486486;244;27548;-75
2023/02/10 10:00:53;;;;;;;47.30;27.87;;;1.50;99.90;;;;;;486502;242;27430;-76
2023/02/10 10:02:54;;;;;;;39.58;24.45;;;1.50;99.90;;;;;;486489;244;27997;-76
2023/02/10 10:04:55;;;;;;;42.47;25.27;;;1.60;99.90;;;;;;486511;244;27945;-77
2023/02/10 10:06:56;;;;;;;43.42;24.70;;;1.50;99.90;;;;;;486475;244;27526;-76
2023/02/10 10:08:58;;;;;;;37.85;22.40;;;1.50;99.90;;;;;;486465;244;27438;-75
2023/02/10 10:10:59;;;;;;;44.95;26.73;;;1.50;99.90;;;;;;486526;244;27425;-78
2023/02/10 10:13:00;;;;;;;44.15;27.05;;;1.50;99.90;;;;;;486494;244;27493;-77
2023/02/10 10:15:02;;;;;;;39.97;24.48;;;1.50;99.90;;;;;;486495;244;27446;-75
2023/02/10 10:17:03;;;;;;;46.83;26.35;;;1.40;99.90;;;;;;486480;244;27426;-77
2023/02/10 10:19:04;;;;;;;42.62;24.37;;;1.50;99.90;;;;;;486478;244;27934;-76
2023/02/10 10:21:05;;;;;;;41.67;26.12;;;1.60;99.90;;;;;;486546;244;28001;-77
2023/02/10 10:23:07;;;;;;;40.30;24.02;;;1.60;99.90;;;;;;486511;244;27533;-76
2023/02/10 10:25:08;;;;;;;40.50;24.63;;;1.70;99.90;;;;;;486466;244;27545;-77